createdAt,value
2016-05-20T00:00:43.129Z,10.84
2016-05-20T00:01:43.132Z,10.82
2016-05-20T00:02:43.165Z,10.84
2016-05-20T00:03:43.137Z,10.84
2016-05-20T00:04:43.139Z,10.76
2016-05-20T00:05:43.158Z,10.82
2016-05-20T00:06:43.129Z,10.76
2016-05-20T00:07:43.132Z,10.71
2016-05-20T00:08:43.119Z,10.82
2016-05-20T00:09:42.981Z,10.81
2016-05-20T00:10:43.156Z,10.72
2016-05-20T00:11:43.127Z,10.74
2016-05-20T00:12:43.130Z,10.82
2016-05-20T00:13:43.116Z,10.71
2016-05-20T00:14:43.120Z,10.81
2016-05-20T00:15:43.122Z,10.78
2016-05-20T00:16:43.125Z,10.81
2016-05-20T00:17:42.972Z,10.69
2016-05-20T00:18:43.114Z,10.78
2016-05-20T00:19:42.961Z,10.74
2016-05-20T00:20:43.120Z,10.74
2016-05-20T00:21:43.107Z,10.81
2016-05-20T00:22:43.110Z,10.75
2016-05-20T00:23:42.957Z,10.69
2016-05-20T00:24:43.115Z,10.6
2016-05-20T00:25:42.962Z,10.61
2016-05-20T00:26:43.104Z,10.53
2016-05-20T00:27:43.107Z,10.51
2016-05-20T00:28:42.938Z,10.48
2016-05-20T00:29:42.941Z,10.44
2016-05-20T00:30:43.101Z,10.51
2016-05-20T00:31:43.103Z,10.38
2016-05-20T00:32:43.106Z,10.42
2016-05-20T00:33:43.093Z,10.37
2016-05-20T00:34:43.127Z,10.41
2016-05-20T00:35:43.082Z,10.38
2016-05-20T00:36:43.101Z,10.34
2016-05-20T00:37:43.087Z,10.37
2016-05-20T00:38:43.090Z,10.49
2016-05-20T00:39:42.953Z,10.41
2016-05-20T00:40:43.080Z,10.46
2016-05-20T00:41:43.083Z,10.48
2016-05-20T00:42:43.085Z,10.57
2016-05-20T00:43:43.088Z,10.56
2016-05-20T00:44:42.951Z,10.6
2016-05-20T00:45:43.078Z,10.6
2016-05-20T00:46:43.080Z,10.63
2016-05-20T00:47:42.927Z,10.74
2016-05-20T00:48:43.070Z,10.74
2016-05-20T00:49:42.933Z,10.74
2016-05-20T00:50:42.919Z,10.71
2016-05-20T00:51:43.078Z,10.75
2016-05-20T00:52:42.925Z,10.74
2016-05-20T00:53:43.068Z,10.68
2016-05-20T00:54:43.274Z,10.69
2016-05-20T00:55:43.074Z,10.72
2016-05-20T00:56:43.060Z,10.79
2016-05-20T00:57:43.063Z,10.75
2016-05-20T00:58:42.910Z,10.72
2016-05-20T00:59:42.913Z,10.71
2016-05-20T01:00:43.071Z,10.69
2016-05-20T01:01:42.902Z,10.75
2016-05-20T01:02:43.062Z,10.72
2016-05-20T01:03:43.049Z,10.71
2016-05-20T01:04:43.067Z,10.79
2016-05-20T01:05:43.054Z,10.75
2016-05-20T01:06:42.900Z,10.64
2016-05-20T01:07:42.903Z,10.72
2016-05-20T01:08:43.109Z,10.64
2016-05-20T01:09:43.158Z,10.69
2016-05-20T01:10:43.051Z,10.67
2016-05-20T01:11:43.053Z,10.68
2016-05-20T01:12:43.056Z,10.59
2016-05-20T01:13:42.888Z,10.68
2016-05-20T01:14:43.046Z,10.61
2016-05-20T01:15:43.049Z,10.59
2016-05-20T01:16:43.052Z,10.63
2016-05-20T01:17:42.898Z,10.67
2016-05-20T01:18:43.042Z,10.61
2016-05-20T01:19:42.888Z,10.61
2016-05-20T01:20:43.063Z,10.67
2016-05-20T01:21:43.033Z,10.61
2016-05-20T01:22:43.036Z,10.63
2016-05-20T01:23:42.899Z,10.67
2016-05-20T01:24:42.885Z,10.63
2016-05-20T01:25:43.029Z,10.59
2016-05-20T01:26:42.876Z,10.61
2016-05-20T01:27:43.019Z,10.59
2016-05-20T01:28:43.022Z,10.61
2016-05-20T01:29:43.024Z,10.63
2016-05-20T01:30:43.027Z,10.57
2016-05-20T01:31:42.890Z,10.59
2016-05-20T01:32:43.032Z,10.63
2016-05-20T01:33:43.020Z,10.63
2016-05-20T01:34:43.023Z,10.57
2016-05-20T01:35:43.025Z,10.54
2016-05-20T01:36:43.012Z,10.57
2016-05-20T01:37:43.031Z,10.61
2016-05-20T01:38:43.017Z,10.61
2016-05-20T01:39:42.879Z,10.63
2016-05-20T01:40:43.038Z,10.54
2016-05-20T01:41:43.010Z,10.57
2016-05-20T01:42:43.013Z,10.56
2016-05-20T01:43:43.014Z,10.59
2016-05-20T01:44:43.018Z,10.54
2016-05-20T01:45:43.020Z,10.57
2016-05-20T01:46:43.023Z,10.54
2016-05-20T01:47:43.011Z,10.6
2016-05-20T01:48:42.856Z,10.59
2016-05-20T01:49:42.859Z,10.56
2016-05-20T01:50:42.861Z,10.56
2016-05-20T01:51:43.005Z,10.53
2016-05-20T01:52:43.008Z,10.56
2016-05-20T01:53:42.994Z,10.46
2016-05-20T01:54:42.888Z,10.46
2016-05-20T01:55:42.844Z,10.46
2016-05-20T01:56:42.988Z,10.38
2016-05-20T01:57:42.834Z,10.31
2016-05-20T01:58:42.993Z,10.23
2016-05-20T01:59:42.996Z,10.25
2016-05-20T02:00:42.843Z,10.09
2016-05-20T02:01:42.985Z,10.15
2016-05-20T02:02:42.988Z,10.2
2016-05-20T02:03:42.990Z,10.12
2016-05-20T02:04:42.821Z,10.13
2016-05-20T02:05:42.981Z,10.17
2016-05-20T02:06:42.983Z,10.17
2016-05-20T02:07:42.970Z,10.16
2016-05-20T02:08:42.973Z,10.12
2016-05-20T02:09:42.867Z,10.17
2016-05-20T02:10:42.979Z,10.19
2016-05-20T02:11:42.841Z,10.22
2016-05-20T02:12:42.968Z,10.12
2016-05-20T02:13:42.971Z,10.19
2016-05-20T02:14:42.958Z,10.02
2016-05-20T02:15:42.975Z,10.16
2016-05-20T02:16:42.964Z,10.17
2016-05-20T02:17:42.966Z,10.15
2016-05-20T02:18:42.797Z,10.1
2016-05-20T02:19:42.972Z,10.17
2016-05-20T02:20:42.802Z,10.16
2016-05-20T02:21:42.961Z,10.2
2016-05-20T02:22:42.963Z,10.16
2016-05-20T02:23:42.951Z,10.05
2016-05-20T02:24:42.969Z,10.13
2016-05-20T02:25:42.800Z,10.09
2016-05-20T02:26:42.803Z,10.25
2016-05-20T02:27:42.946Z,10.16
2016-05-20T02:28:42.949Z,10.28
2016-05-20T02:29:42.779Z,10.23
2016-05-20T02:30:42.954Z,10.25
2016-05-20T02:31:42.785Z,10.2
2016-05-20T02:32:42.787Z,10.26
2016-05-20T02:33:42.946Z,10.22
2016-05-20T02:34:42.933Z,10.22
2016-05-20T02:35:42.936Z,10.25
2016-05-20T02:36:42.954Z,10.23
2016-05-20T02:37:42.942Z,10.2
2016-05-20T02:38:42.929Z,10.17
2016-05-20T02:39:43.057Z,10.2
2016-05-20T02:40:42.934Z,10.12
2016-05-20T02:41:42.765Z,10.09
2016-05-20T02:42:42.924Z,10.16
2016-05-20T02:43:42.926Z,10.2
2016-05-20T02:44:42.914Z,10.09
2016-05-20T02:45:42.759Z,10.1
2016-05-20T02:46:42.809Z,10.19
2016-05-20T02:47:42.906Z,10.16
2016-05-20T02:48:42.925Z,10.22
2016-05-20T02:49:42.911Z,10.17
2016-05-20T02:50:42.914Z,10.1
2016-05-20T02:51:42.917Z,10.13
2016-05-20T02:52:42.748Z,10.05
2016-05-20T02:53:42.906Z,10.02
2016-05-20T02:54:43.066Z,9.98
2016-05-20T02:55:42.741Z,9.89
2016-05-20T02:56:42.899Z,9.84
2016-05-20T02:57:42.902Z,9.91
2016-05-20T02:58:42.888Z,9.92
2016-05-20T02:59:42.891Z,9.89
2016-05-20T03:00:42.894Z,9.84
2016-05-20T03:01:42.897Z,9.76
2016-05-20T03:02:42.900Z,9.87
2016-05-20T03:03:42.886Z,9.76
2016-05-20T03:04:42.890Z,9.77
2016-05-20T03:05:42.751Z,9.74
2016-05-20T03:06:42.895Z,9.68
2016-05-20T03:07:42.898Z,9.59
2016-05-20T03:08:42.868Z,9.64
2016-05-20T03:09:42.903Z,9.65
2016-05-20T03:10:42.827Z,9.64
2016-05-20T03:11:42.954Z,9.64
2016-05-20T03:12:42.707Z,9.66
2016-05-20T03:13:42.897Z,9.65
2016-05-20T03:14:42.556Z,9.74
2016-05-20T03:15:42.857Z,9.68
2016-05-20T03:16:42.859Z,9.76
2016-05-20T03:17:42.861Z,9.79
2016-05-20T03:18:42.865Z,9.79
2016-05-20T03:19:42.695Z,9.79
2016-05-20T03:20:42.853Z,9.72
2016-05-20T03:21:42.685Z,9.8
2016-05-20T03:22:42.844Z,9.77
2016-05-20T03:23:42.861Z,9.73
2016-05-20T03:24:43.005Z,9.68
2016-05-20T03:25:42.868Z,9.77
2016-05-20T03:26:42.838Z,9.77
2016-05-20T03:27:42.826Z,9.82
2016-05-20T03:28:42.829Z,9.77
2016-05-20T03:29:42.832Z,9.73
2016-05-20T03:30:42.678Z,9.82
2016-05-20T03:31:42.821Z,9.74
2016-05-20T03:32:42.824Z,9.74
2016-05-20T03:33:42.826Z,9.77
2016-05-20T03:34:42.673Z,9.8
2016-05-20T03:35:42.816Z,9.79
2016-05-20T03:36:42.818Z,9.77
2016-05-20T03:37:42.806Z,9.83
2016-05-20T03:38:42.809Z,9.77
2016-05-20T03:39:42.859Z,9.77
2016-05-20T03:40:42.814Z,9.73
2016-05-20T03:41:42.817Z,9.76
2016-05-20T03:42:42.804Z,9.76
2016-05-20T03:43:42.651Z,9.73
2016-05-20T03:44:42.637Z,9.84
2016-05-20T03:45:42.796Z,9.8
2016-05-20T03:46:42.798Z,9.77
2016-05-20T03:47:42.630Z,9.76
2016-05-20T03:48:42.788Z,9.77
2016-05-20T03:49:42.791Z,9.77
2016-05-20T03:50:42.638Z,9.74
2016-05-20T03:51:42.641Z,9.76
2016-05-20T03:52:42.769Z,9.8
2016-05-20T03:53:42.631Z,9.87
2016-05-20T03:54:42.789Z,9.82
2016-05-20T03:55:42.855Z,9.83
2016-05-20T03:56:42.623Z,9.87
2016-05-20T03:57:42.766Z,9.86
2016-05-20T03:58:42.785Z,9.91
2016-05-20T03:59:42.615Z,9.86
2016-05-20T04:00:42.774Z,9.84
2016-05-20T04:01:42.777Z,9.84
2016-05-20T04:02:42.764Z,9.92
2016-05-20T04:03:42.594Z,9.86
2016-05-20T04:04:42.754Z,9.94
2016-05-20T04:05:42.757Z,9.91
2016-05-20T04:06:42.603Z,9.84
2016-05-20T04:07:42.762Z,9.89
2016-05-20T04:08:42.764Z,9.92
2016-05-20T04:09:42.768Z,9.89
2016-05-20T04:10:42.770Z,9.98
2016-05-20T04:11:42.757Z,10.01
2016-05-20T04:12:42.743Z,10.12
2016-05-20T04:13:42.746Z,10.17
2016-05-20T04:14:42.734Z,10.16
2016-05-20T04:15:42.581Z,10.25
2016-05-20T04:16:42.740Z,10.3
2016-05-20T04:17:42.742Z,10.35
2016-05-20T04:18:42.745Z,10.31
2016-05-20T04:19:42.592Z,10.42
2016-05-20T04:20:42.578Z,10.37
2016-05-20T04:21:42.753Z,10.35
2016-05-20T04:22:42.739Z,10.54
2016-05-20T04:23:42.570Z,10.49
2016-05-20T04:24:42.745Z,10.59
2016-05-20T04:25:42.732Z,10.56
2016-05-20T04:26:42.735Z,10.59
2016-05-20T04:27:42.721Z,10.63
2016-05-20T04:28:42.568Z,10.57
2016-05-20T04:29:42.572Z,10.61
2016-05-20T04:30:42.730Z,10.51
2016-05-20T04:31:42.733Z,10.49
2016-05-20T04:32:42.719Z,10.57
2016-05-20T04:33:42.410Z,10.34
2016-05-20T04:34:42.569Z,10.4
2016-05-20T04:35:42.712Z,10.37
2016-05-20T04:36:42.730Z,10.38
2016-05-20T04:37:42.717Z,10.31
2016-05-20T04:38:42.721Z,10.28
2016-05-20T04:39:42.724Z,10.33
2016-05-20T04:40:42.741Z,10.3
2016-05-20T04:41:42.760Z,10.13
2016-05-20T04:42:42.715Z,10.16
2016-05-20T04:43:42.718Z,10.1
2016-05-20T04:44:45.721Z,10.07
2016-05-20T04:45:42.707Z,10.04
2016-05-20T04:46:42.695Z,10.23
2016-05-20T04:47:42.697Z,10.13
2016-05-20T04:48:42.700Z,10.13
2016-05-20T04:49:42.703Z,10.09
2016-05-20T04:50:42.689Z,10.12
2016-05-20T04:51:42.693Z,10.2
2016-05-20T04:52:42.695Z,10.13
2016-05-20T04:53:42.542Z,10.13
2016-05-20T04:54:42.811Z,9.99
2016-05-20T04:55:42.688Z,10.15
2016-05-20T04:56:42.690Z,9.99
2016-05-20T04:57:42.693Z,10.12
2016-05-20T04:58:42.680Z,10.13
2016-05-20T04:59:42.683Z,10.1
2016-05-20T05:00:42.669Z,10.15
2016-05-20T05:01:42.689Z,10.16
2016-05-20T05:02:42.737Z,10.16
2016-05-20T05:03:42.677Z,10.26
2016-05-20T05:04:42.681Z,10.35
2016-05-20T05:05:42.683Z,10.56
2016-05-20T05:06:42.671Z,10.57
2016-05-20T05:07:42.673Z,10.79
2016-05-20T05:08:42.379Z,11.05
2016-05-20T05:09:42.976Z,11.44
2016-05-20T05:10:42.681Z,11.69
2016-05-20T05:11:42.684Z,11.97
2016-05-20T05:12:42.670Z,12.28
2016-05-20T05:13:42.673Z,12.36
2016-05-20T05:14:42.676Z,12.35
2016-05-20T05:15:42.679Z,12.39
2016-05-20T05:16:42.666Z,12.31
2016-05-20T05:17:42.668Z,12.22
2016-05-20T05:18:42.671Z,12.2
2016-05-20T05:19:42.674Z,12.15
2016-05-20T05:20:42.365Z,12.18
2016-05-20T05:21:42.679Z,12.09
2016-05-20T05:22:42.681Z,11.97
2016-05-20T05:23:42.685Z,12
2016-05-20T05:24:42.453Z,11.94
2016-05-20T05:25:42.689Z,11.83
2016-05-20T05:26:42.661Z,11.84
2016-05-20T05:27:42.664Z,11.8
2016-05-20T05:28:42.667Z,11.87
2016-05-20T05:29:42.670Z,11.94
2016-05-20T05:30:42.672Z,11.9
2016-05-20T05:31:42.691Z,12.28
2016-05-20T05:32:42.678Z,12.36
2016-05-20T05:33:42.681Z,12.49
2016-05-20T05:34:42.683Z,12.39
2016-05-20T05:35:42.514Z,12.29
2016-05-20T05:36:42.673Z,12.25
2016-05-20T05:37:42.676Z,12.36
2016-05-20T05:38:42.694Z,12.36
2016-05-20T05:39:42.852Z,12.25
2016-05-20T05:40:42.669Z,12.31
2016-05-20T05:41:42.687Z,12.21
2016-05-20T05:42:42.689Z,12.35
2016-05-20T05:43:42.677Z,12.29
2016-05-20T05:44:42.678Z,12.28
2016-05-20T05:45:42.682Z,12.27
2016-05-20T05:46:42.700Z,12.24
2016-05-20T05:47:42.687Z,12.28
2016-05-20T05:48:42.517Z,12.28
2016-05-20T05:49:42.677Z,12.36
2016-05-20T05:50:42.695Z,12.36
2016-05-20T05:51:42.682Z,12.25
2016-05-20T05:52:42.684Z,12.39
2016-05-20T05:53:42.687Z,12.47
2016-05-20T05:54:42.706Z,12.53
2016-05-20T05:55:42.692Z,12.58
2016-05-20T05:56:42.681Z,12.62
2016-05-20T05:57:42.526Z,12.76
2016-05-20T05:58:42.699Z,13.03
2016-05-20T05:59:42.746Z,13.38
2016-05-20T06:00:42.793Z,13.81
2016-05-20T06:01:42.841Z,14.03
2016-05-20T06:02:42.731Z,14.32
2016-05-20T06:03:42.754Z,14.79
2016-05-20T06:04:42.929Z,15.14
2016-05-20T06:05:42.948Z,15.61
2016-05-20T06:06:42.967Z,16.13
2016-05-20T06:07:43.002Z,16.71
2016-05-20T06:08:43.002Z,17.15
2016-05-20T06:09:43.369Z,17.42
2016-05-20T06:10:43.018Z,17.7
2016-05-20T06:11:43.043Z,18.05
2016-05-20T06:12:42.879Z,18.47
2016-05-20T06:13:43.058Z,18.65
2016-05-20T06:14:43.063Z,18.98
2016-05-20T06:15:43.067Z,19
2016-05-20T06:16:43.072Z,19.11
2016-05-20T06:17:42.920Z,19.27
2016-05-20T06:18:43.097Z,19.36
2016-05-20T06:19:43.084Z,19.36
2016-05-20T06:20:43.120Z,19.45
2016-05-20T06:21:43.106Z,19.47
2016-05-20T06:22:42.971Z,19.33
2016-05-20T06:23:43.130Z,19.24
2016-05-20T06:24:43.429Z,19.08
2016-05-20T06:25:42.980Z,19.14
2016-05-20T06:26:43.139Z,19.45
2016-05-20T06:27:43.142Z,19.82
2016-05-20T06:28:43.004Z,20.18
2016-05-20T06:29:43.147Z,20.34
2016-05-20T06:30:43.166Z,20.48
2016-05-20T06:31:43.169Z,20.62
2016-05-20T06:32:43.015Z,20.55
2016-05-20T06:33:43.189Z,20.43
2016-05-20T06:34:43.192Z,20.26
2016-05-20T06:35:43.211Z,20.02
2016-05-20T06:36:43.214Z,19.74
2016-05-20T06:37:43.044Z,19.54
2016-05-20T06:38:43.219Z,19.31
2016-05-20T06:39:43.066Z,19.3
2016-05-20T06:40:43.224Z,19.36
2016-05-20T06:41:43.241Z,19.26
2016-05-20T06:42:43.245Z,19.19
2016-05-20T06:43:43.247Z,19.29
2016-05-20T06:44:43.282Z,19.15
2016-05-20T06:45:43.096Z,19.26
2016-05-20T06:46:43.271Z,19.48
2016-05-20T06:47:43.274Z,19.82
2016-05-20T06:48:43.276Z,19.94
2016-05-20T06:49:43.279Z,20.09
2016-05-20T06:50:43.298Z,20.41
2016-05-20T06:51:43.316Z,20.7
2016-05-20T06:52:43.318Z,20.59
2016-05-20T06:53:43.306Z,20.74
2016-05-20T06:54:43.324Z,20.51
2016-05-20T06:55:43.171Z,20.34
2016-05-20T06:56:43.329Z,20.55
2016-05-20T06:57:43.332Z,20.84
2016-05-20T06:58:43.351Z,21
2016-05-20T06:59:43.353Z,21.25
2016-05-20T07:00:43.356Z,21.43
2016-05-20T07:01:43.375Z,21.52
2016-05-20T07:02:43.377Z,21.72
2016-05-20T07:03:43.380Z,21.76
2016-05-20T07:04:43.397Z,21.77
2016-05-20T07:05:43.400Z,22.07
2016-05-20T07:06:43.247Z,22
2016-05-20T07:07:43.422Z,22.04
2016-05-20T07:08:43.471Z,22.33
2016-05-20T07:09:43.489Z,22.59
2016-05-20T07:10:43.445Z,22.87
2016-05-20T07:11:43.448Z,23.2
2016-05-20T07:12:43.294Z,23.34
2016-05-20T07:13:43.469Z,23.51
2016-05-20T07:14:43.503Z,23.63
2016-05-20T07:15:43.334Z,23.86
2016-05-20T07:16:43.508Z,23.8
2016-05-20T07:17:43.496Z,23.76
2016-05-20T07:18:43.499Z,23.65
2016-05-20T07:19:43.360Z,23.68
2016-05-20T07:20:43.518Z,23.55
2016-05-20T07:21:43.537Z,23.36
2016-05-20T07:22:43.571Z,23.21
2016-05-20T07:23:43.559Z,23.23
2016-05-20T07:24:43.623Z,23.34
2016-05-20T07:25:43.407Z,23.48
2016-05-20T07:26:43.442Z,23.62
2016-05-20T07:27:43.601Z,24.02
2016-05-20T07:28:43.603Z,24.18
2016-05-20T07:29:43.606Z,24.35
2016-05-20T07:30:43.453Z,24.55
2016-05-20T07:31:43.627Z,24.61
2016-05-20T07:32:43.629Z,24.68
2016-05-20T07:33:43.648Z,24.78
2016-05-20T07:34:43.651Z,24.68
2016-05-20T07:35:43.653Z,24.28
2016-05-20T07:36:43.671Z,24.13
2016-05-20T07:37:43.674Z,23.96
2016-05-20T07:38:43.692Z,23.65
2016-05-20T07:39:43.742Z,23.46
2016-05-20T07:40:43.557Z,23.55
2016-05-20T07:41:43.716Z,23.78
2016-05-20T07:42:43.719Z,23.93
2016-05-20T07:43:43.738Z,24.03
2016-05-20T07:44:43.599Z,23.95
2016-05-20T07:45:43.758Z,24.06
2016-05-20T07:46:43.464Z,24.1
2016-05-20T07:47:43.779Z,23.99
2016-05-20T07:48:43.766Z,23.95
2016-05-20T07:49:43.800Z,24.08
2016-05-20T07:50:43.647Z,24.1
2016-05-20T07:51:43.806Z,23.93
2016-05-20T07:52:44.073Z,23.96
2016-05-20T07:53:43.826Z,23.99
2016-05-20T07:54:44.188Z,24.2
2016-05-20T07:55:43.848Z,24.54
2016-05-20T07:56:43.865Z,24.33
2016-05-20T07:57:43.868Z,24.36
2016-05-20T07:58:43.871Z,24.6
2016-05-20T07:59:47.077Z,24.84
2016-05-20T08:00:43.892Z,24.81
2016-05-20T08:01:46.926Z,24.86
2016-05-20T08:02:44.804Z,24.29
2016-05-20T08:03:43.916Z,23.68
2016-05-20T08:04:43.778Z,22.75
2016-05-20T08:05:43.953Z,22.13
2016-05-20T08:06:43.939Z,21.57
2016-05-20T08:07:46.630Z,21.2
2016-05-20T08:08:43.961Z,20.7
2016-05-20T08:09:44.104Z,20.34
2016-05-20T08:10:44.060Z,20.1
2016-05-20T08:11:44.000Z,20.32
2016-05-20T08:12:43.862Z,20.72
2016-05-20T08:13:44.021Z,21.09
2016-05-20T08:14:43.867Z,21.4
2016-05-20T08:15:44.027Z,21.72
2016-05-20T08:16:43.905Z,21.88
2016-05-20T08:17:52.766Z,21.92
2016-05-20T08:18:44.332Z,22.02
2016-05-20T08:19:43.880Z,22.33
2016-05-20T08:20:44.071Z,22.44
2016-05-20T08:21:48.480Z,22.54
2016-05-20T08:22:44.920Z,22.53
2016-05-20T08:23:44.095Z,22.3
2016-05-20T08:24:44.723Z,21.72
2016-05-20T08:25:44.397Z,21.66
2016-05-20T08:26:44.149Z,21.6
2016-05-20T08:27:44.137Z,21.5
2016-05-20T08:28:43.967Z,21.5
2016-05-20T08:29:44.142Z,21.46
2016-05-20T08:30:44.145Z,21.36
2016-05-20T08:31:44.147Z,21.25
2016-05-20T08:32:44.166Z,21.51
2016-05-20T08:33:44.012Z,21.8
2016-05-20T08:34:44.343Z,22.22
2016-05-20T08:35:44.189Z,22.68
2016-05-20T08:36:48.911Z,23.18
2016-05-20T08:37:44.195Z,23.44
2016-05-20T08:38:44.197Z,23.99
2016-05-20T08:39:44.216Z,24.24
2016-05-20T08:40:44.219Z,24.54
2016-05-20T08:41:44.237Z,24.69
2016-05-20T08:42:44.225Z,24.66
2016-05-20T08:43:44.242Z,24.61
2016-05-20T08:44:44.260Z,24.36
2016-05-20T08:45:44.279Z,24.02
2016-05-20T08:46:44.610Z,23.47
2016-05-20T08:47:44.128Z,22.65
2016-05-20T08:48:44.256Z,22.11
2016-05-20T08:49:44.290Z,21.89
2016-05-20T08:50:44.293Z,21.54
2016-05-20T08:51:44.296Z,21.03
2016-05-20T08:52:44.313Z,20.59
2016-05-20T08:53:44.176Z,20.21
2016-05-20T08:54:44.396Z,19.86
2016-05-20T08:55:44.353Z,19.59
2016-05-20T08:56:44.074Z,19.45
2016-05-20T08:57:44.217Z,19.45
2016-05-20T08:58:44.690Z,19.34
2016-05-20T08:59:44.363Z,19.31
2016-05-20T09:00:44.366Z,19.4
2016-05-20T09:01:44.400Z,19.4
2016-05-20T09:02:44.371Z,19.37
2016-05-20T09:03:44.390Z,19.36
2016-05-20T09:04:44.440Z,19.22
2016-05-20T09:05:44.489Z,19.04
2016-05-20T09:06:44.460Z,18.93
2016-05-20T09:07:44.432Z,18.96
2016-05-20T09:08:45.981Z,18.95
2016-05-20T09:09:44.922Z,19.09
2016-05-20T09:10:44.284Z,19.11
2016-05-20T09:11:44.427Z,19.18
2016-05-20T09:12:44.445Z,19.3
2016-05-20T09:13:44.276Z,19.4
2016-05-20T09:14:44.294Z,19.49
2016-05-20T09:15:44.453Z,19.4
2016-05-20T09:16:44.472Z,19.41
2016-05-20T09:17:44.475Z,19.51
2016-05-20T09:18:46.181Z,19.49
2016-05-20T09:19:44.496Z,19.33
2016-05-20T09:20:44.327Z,19.27
2016-05-20T09:21:44.485Z,19.33
2016-05-20T09:22:44.488Z,19.52
2016-05-20T09:23:44.350Z,19.54
2016-05-20T09:24:44.821Z,19.62
2016-05-20T09:25:44.402Z,19.59
2016-05-20T09:26:44.514Z,19.51
2016-05-20T09:27:44.377Z,19.45
2016-05-20T09:28:44.520Z,19.49
2016-05-20T09:29:44.523Z,19.51
2016-05-20T09:30:44.416Z,19.47
2016-05-20T09:31:44.543Z,19.58
2016-05-20T09:32:44.546Z,19.55
2016-05-20T09:33:44.409Z,19.7
2016-05-20T09:34:44.551Z,19.69
2016-05-20T09:35:44.554Z,19.74
2016-05-20T09:36:44.572Z,19.66
2016-05-20T09:37:44.419Z,19.54
2016-05-20T09:38:44.609Z,19.54
2016-05-20T09:39:44.955Z,19.55
2016-05-20T09:40:44.927Z,19.71
2016-05-20T09:41:44.586Z,19.82
2016-05-20T09:42:44.448Z,19.84
2016-05-20T09:43:45.029Z,19.64
2016-05-20T09:44:44.453Z,19.71
2016-05-20T09:45:44.612Z,19.77
2016-05-20T09:46:44.614Z,19.94
2016-05-20T09:47:44.477Z,19.99
2016-05-20T09:48:46.136Z,20.16
2016-05-20T09:49:44.639Z,20.31
2016-05-20T09:50:44.625Z,20.31
2016-05-20T09:51:44.644Z,20.25
2016-05-20T09:52:44.663Z,20.24
2016-05-20T09:53:44.493Z,20.19
2016-05-20T09:54:44.668Z,20.02
2016-05-20T09:55:44.951Z,20.09
2016-05-20T09:56:44.674Z,20.19
2016-05-20T09:57:44.691Z,20.26
2016-05-20T09:58:45.756Z,20.32
2016-05-20T09:59:44.540Z,20.22
2016-05-20T10:00:44.684Z,20.13
2016-05-20T10:01:44.702Z,20.09
2016-05-20T10:02:44.533Z,20.25
2016-05-20T10:03:50.504Z,20.4
2016-05-20T10:04:44.554Z,20.48
2016-05-20T10:05:44.713Z,20.66
2016-05-20T10:06:44.419Z,20.72
2016-05-20T10:07:44.750Z,20.84
2016-05-20T10:08:49.362Z,20.84
2016-05-20T10:09:45.036Z,20.84
2016-05-20T10:10:44.429Z,20.8
2016-05-20T10:11:44.761Z,20.69
2016-05-20T10:12:44.747Z,20.6
2016-05-20T10:13:46.281Z,20.55
2016-05-20T10:14:44.597Z,20.52
2016-05-20T10:15:44.771Z,20.59
2016-05-20T10:16:44.774Z,20.69
2016-05-20T10:17:44.620Z,20.66
2016-05-20T10:18:46.716Z,20.66
2016-05-20T10:19:44.797Z,20.6
2016-05-20T10:20:44.831Z,20.67
2016-05-20T10:21:44.818Z,20.66
2016-05-20T10:22:44.821Z,20.69
2016-05-20T10:23:46.996Z,20.78
2016-05-20T10:24:45.530Z,20.7
2016-05-20T10:25:44.876Z,20.75
2016-05-20T10:26:44.832Z,20.67
2016-05-20T10:27:44.834Z,20.56
2016-05-20T10:28:45.649Z,20.52
2016-05-20T10:29:44.699Z,20.63
2016-05-20T10:30:44.874Z,20.77
2016-05-20T10:31:44.579Z,20.84
2016-05-20T10:32:44.879Z,20.87
2016-05-20T10:33:46.866Z,20.88
2016-05-20T10:34:44.885Z,20.88
2016-05-20T10:35:44.918Z,20.67
2016-05-20T10:36:44.890Z,20.77
2016-05-20T10:37:44.893Z,20.63
2016-05-20T10:38:47.395Z,20.55
2016-05-20T10:39:44.601Z,20.55
2016-05-20T10:40:44.948Z,20.6
2016-05-20T10:41:44.950Z,20.65
2016-05-20T10:42:44.954Z,20.66
2016-05-20T10:43:47.252Z,20.48
2016-05-20T10:44:44.943Z,20.4
2016-05-20T10:45:44.618Z,20.37
2016-05-20T10:46:44.948Z,20.32
2016-05-20T10:47:44.842Z,20.32
2016-05-20T10:48:46.470Z,20.32
2016-05-20T10:49:44.972Z,20.31
2016-05-20T10:50:44.958Z,20.34
2016-05-20T10:51:45.009Z,20.52
2016-05-20T10:52:44.996Z,20.66
2016-05-20T10:53:48.061Z,20.81
2016-05-20T10:54:45.157Z,21.05
2016-05-20T10:55:45.207Z,21.2
2016-05-20T10:56:45.022Z,21.43
2016-05-20T10:57:45.010Z,21.51
2016-05-20T10:58:45.934Z,21.62
2016-05-20T10:59:45.014Z,21.67
2016-05-20T11:00:45.032Z,21.77
2016-05-20T11:01:45.066Z,21.8
2016-05-20T11:02:45.023Z,21.75
2016-05-20T11:03:47.057Z,21.51
2016-05-20T11:04:44.918Z,21.3
2016-05-20T11:05:45.046Z,21.15
2016-05-20T11:06:45.065Z,21.2
2016-05-20T11:07:45.067Z,21.24
2016-05-20T11:08:47.164Z,21.25
2016-05-20T11:09:45.073Z,21.21
2016-05-20T11:10:44.966Z,21.22
2016-05-20T11:11:45.079Z,21.21
2016-05-20T11:12:44.940Z,21.24
2016-05-20T11:13:46.177Z,21.29
2016-05-20T11:14:45.133Z,21.17
2016-05-20T11:15:45.104Z,20.9
2016-05-20T11:16:44.967Z,20.66
2016-05-20T11:17:45.141Z,20.47
2016-05-20T11:18:44.972Z,20.36
2016-05-20T11:19:45.131Z,20.31
2016-05-20T11:20:45.133Z,20.29
2016-05-20T11:21:45.152Z,20.37
2016-05-20T11:22:45.154Z,20.32
2016-05-20T11:23:46.485Z,20.37
2016-05-20T11:24:45.160Z,20.5
2016-05-20T11:25:45.288Z,20.59
2016-05-20T11:26:45.180Z,20.75
2016-05-20T11:27:45.168Z,20.7
2016-05-20T11:28:45.046Z,20.85
2016-05-20T11:29:45.189Z,20.95
2016-05-20T11:30:45.192Z,21.03
2016-05-20T11:31:45.194Z,21.03
2016-05-20T11:32:45.104Z,20.99
2016-05-20T11:33:45.215Z,21.03
2016-05-20T11:34:45.390Z,20.88
2016-05-20T11:35:45.065Z,20.84
2016-05-20T11:36:45.223Z,20.88
2016-05-20T11:37:45.132Z,20.85
2016-05-20T11:38:45.244Z,20.93
2016-05-20T11:39:45.090Z,20.97
2016-05-20T11:40:45.250Z,20.93
2016-05-20T11:41:45.253Z,20.9
2016-05-20T11:42:45.255Z,20.84
2016-05-20T11:43:45.274Z,20.88
2016-05-20T11:44:45.276Z,20.92
2016-05-20T11:45:45.278Z,20.99
2016-05-20T11:46:45.281Z,20.9
2016-05-20T11:47:45.315Z,20.9
2016-05-20T11:48:45.131Z,20.74
2016-05-20T11:49:45.289Z,20.77
2016-05-20T11:50:45.153Z,20.69
2016-05-20T11:51:45.294Z,20.59
2016-05-20T11:52:45.313Z,20.72
2016-05-20T11:53:45.316Z,20.8
2016-05-20T11:54:45.319Z,20.72
2016-05-20T11:55:45.337Z,20.75
2016-05-20T11:56:45.168Z,20.72
2016-05-20T11:57:45.186Z,20.72
2016-05-20T11:58:45.189Z,20.65
2016-05-20T11:59:45.207Z,20.63
2016-05-20T12:00:45.366Z,20.69
2016-05-20T12:01:45.369Z,20.77
2016-05-20T12:02:45.387Z,20.88
2016-05-20T12:03:45.374Z,20.95
2016-05-20T12:04:45.377Z,21
2016-05-20T12:05:45.395Z,20.87
2016-05-20T12:06:45.398Z,20.92
2016-05-20T12:07:45.447Z,20.84
2016-05-20T12:08:45.466Z,20.85
2016-05-20T12:09:45.406Z,20.78
2016-05-20T12:10:45.940Z,20.84
2016-05-20T12:11:45.412Z,20.97
2016-05-20T12:12:45.415Z,21.18
2016-05-20T12:13:46.042Z,21.39
2016-05-20T12:14:45.262Z,21.61
2016-05-20T12:15:45.437Z,21.6
2016-05-20T12:16:45.440Z,21.48
2016-05-20T12:17:45.459Z,21.27
2016-05-20T12:18:45.461Z,21.24
2016-05-20T12:19:45.464Z,21.21
2016-05-20T12:20:45.466Z,21.09
2016-05-20T12:21:45.485Z,21.14
2016-05-20T12:22:45.488Z,21.09
2016-05-20T12:23:45.491Z,21.15
2016-05-20T12:24:45.509Z,21.22
2016-05-20T12:25:45.558Z,21.32
2016-05-20T12:26:45.530Z,21.5
2016-05-20T12:27:45.502Z,21.52
2016-05-20T12:28:45.535Z,21.5
2016-05-20T12:29:45.507Z,21.46
2016-05-20T12:30:45.525Z,21.37
2016-05-20T12:31:45.543Z,21.39
2016-05-20T12:32:45.374Z,21.46
2016-05-20T12:33:45.393Z,21.48
2016-05-20T12:34:45.552Z,21.45
2016-05-20T12:35:45.411Z,21.48
2016-05-20T12:36:45.557Z,21.52
2016-05-20T12:37:45.559Z,21.5
2016-05-20T12:38:45.559Z,21.46
2016-05-20T12:39:45.578Z,21.52
2016-05-20T12:40:46.145Z,21.6
2016-05-20T12:41:45.598Z,21.66
2016-05-20T12:42:47.245Z,21.73
2016-05-20T12:43:45.588Z,21.8
2016-05-20T12:44:45.623Z,21.62
2016-05-20T12:45:45.625Z,21.66
2016-05-20T12:46:45.628Z,21.58
2016-05-20T12:47:46.664Z,21.6
2016-05-20T12:48:45.648Z,21.42
2016-05-20T12:49:45.651Z,21.22
2016-05-20T12:50:45.639Z,21.12
2016-05-20T12:51:45.657Z,21.02
2016-05-20T12:52:46.694Z,21.14
2016-05-20T12:53:45.694Z,21.21
2016-05-20T12:54:45.681Z,21.25
2016-05-20T12:55:46.121Z,21.4
2016-05-20T12:56:45.685Z,21.55
2016-05-20T12:57:46.032Z,21.64
2016-05-20T12:58:45.692Z,21.62